Time;durP1;ratioP1;P1;durP2;ratioP2;P2;SDS_P1;SDS_P2;PMS_P1;PMS_P2;Temp;Humidity;BMP_temperature;BMP_pressure;BME280_temperature;BME280_humidity;BME280_pressure;Samples;Min_cycle;Max_cycle;Signal;HPM_P1;HPM_P2
2022/02/19 00:00:05;;;;;;;;;;;;;;;;;;4794461;28;19921;-65
2022/02/19 00:02:31;;;;;;;;;;;;;;;;;;4774369;28;20539;-64
2022/02/19 00:04:57;;;;;;;;;;;;;;;;;;4794274;28;20032;-66
2022/02/19 00:07:23;;;;;;;;;;;;;;;;;;4794481;28;20739;-64
2022/02/19 00:09:49;;;;;;;;;;;;;;;;;;4792513;28;20274;-64
2022/02/19 00:12:15;;;;;;;;;;;;;;;;;;4792921;28;19944;-64
2022/02/19 00:14:41;;;;;;;;;;;;;;;;;;4771634;28;20000;-65
2022/02/19 00:17:07;;;;;;;;;;;;;;;;;;4773272;28;20675;-64
2022/02/19 00:19:35;;;;;;;;;;;;;;;;;;4793770;28;19929;-64
2022/02/19 00:22:01;;;;;;;;;;;;;;;;;;4793796;28;20649;-66
2022/02/19 00:24:27;;;;;;;;;;;;;;;;;;4796425;28;19926;-64
2022/02/19 00:26:54;;;;;;;;;;;;;;;;;;4796309;28;20731;-64
2022/02/19 00:29:20;;;;;;;;;;;;;;;;;;4796333;28;19925;-64
2022/02/19 00:31:46;;;;;;;;;;;;;;;;;;4794424;28;20981;-64
2022/02/19 00:34:12;;;;;;;;;;;;;;;;;;4772519;28;19993;-66
2022/02/19 00:36:38;;;;;;;;;;;;;;;;;;4793892;28;20639;-66
2022/02/19 00:39:04;;;;;;;;;;;;;;;;;;4792294;28;20259;-66
2022/02/19 00:41:30;;;;;;;;;;;;;;;;;;4794848;28;19922;-66
2022/02/19 00:43:57;;;;;;;;;;;;;;;;;;4774081;28;19980;-66
2022/02/19 00:46:24;;;;;;;;;;;;;;;;;;4798930;28;19921;-66
2022/02/19 00:48:50;;;;;;;;;;;;;;;;;;4796989;28;19921;-65
2022/02/19 00:51:16;;;;;;;;;;;;;;;;;;4796106;28;19922;-65
2022/02/19 00:53:42;;;;;;;;;;;;;;;;;;4796804;28;20091;-64
2022/02/19 00:56:09;;;;;;;;;;;;;;;;;;4777171;28;19926;-64
2022/02/19 00:58:35;;;;;;;;;;;;;;;;;;4799762;28;20668;-64
2022/02/19 01:01:01;;;;;;;;;;;;;;;;;;4798299;28;21712;-64
2022/02/19 01:03:27;;;;;;;;;;;;;;;;;;4798202;28;19928;-64
2022/02/19 01:05:54;;;;;;;;;;;;;;;;;;4865182;28;20066;-65
2022/02/19 01:08:20;;;;;;;;;;;;;;;;;;4797889;28;19925;-65
2022/02/19 01:10:48;;;;;;;;;;;;;;;;;;4774959;28;20735;-65
2022/02/19 01:13:14;;;;;;;;;;;;;;;;;;4774413;28;19968;-65
2022/02/19 01:15:42;;;;;;;;;;;;;;;;;;4797816;28;19926;-64
2022/02/19 01:18:08;;;;;;;;;;;;;;;;;;4797308;28;21670;-65
2022/02/19 01:20:34;;;;;;;;;;;;;;;;;;4798865;28;20623;-64
2022/02/19 01:23:00;;;;;;;;;;;;;;;;;;4797687;28;21301;-64
2022/02/19 01:25:26;;;;;;;;;;;;;;;;;;4778759;28;19929;-65
2022/02/19 01:27:52;;;;;;;;;;;;;;;;;;4799489;28;19922;-64
2022/02/19 01:30:18;;;;;;;;;;;;;;;;;;4800905;28;19928;-65
2022/02/19 01:32:43;;;;;;;;;;;;;;;;;;4796626;28;20673;-66
2022/02/19 01:35:09;;;;;;;;;;;;;;;;;;4796106;28;19926;-64
2022/02/19 01:37:35;;;;;;;;;;;;;;;;;;4797549;28;19943;-65
2022/02/19 01:40:01;;;;;;;;;;;;;;;;;;4775451;28;19921;-64
2022/02/19 01:42:28;;;;;;;;;;;;;;;;;;4775533;28;19922;-65
2022/02/19 01:44:54;;;;;;;;;;;;;;;;;;4797197;28;20729;-65
2022/02/19 01:47:20;;;;;;;;;;;;;;;;;;4797741;28;19925;-64
2022/02/19 01:49:46;;;;;;;;;;;;;;;;;;4796170;28;19932;-67
2022/02/19 01:52:12;;;;;;;;;;;;;;;;;;4798866;28;20019;-64
2022/02/19 01:54:38;;;;;;;;;;;;;;;;;;4795531;28;20016;-65
2022/02/19 01:57:04;;;;;;;;;;;;;;;;;;4793866;28;20514;-65
2022/02/19 01:59:30;;;;;;;;;;;;;;;;;;4795354;28;19929;-66
2022/02/19 02:01:56;;;;;;;;;;;;;;;;;;4793204;28;19928;-65
2022/02/19 02:04:22;;;;;;;;;;;;;;;;;;4795609;28;20594;-64
2022/02/19 02:06:48;;;;;;;;;;;;;;;;;;4796877;28;20131;-64
2022/02/19 02:09:15;;;;;;;;;;;;;;;;;;4794440;28;19922;-64
2022/02/19 02:11:41;;;;;;;;;;;;;;;;;;4774366;28;20047;-65
2022/02/19 02:14:07;;;;;;;;;;;;;;;;;;4795039;28;20937;-65
2022/02/19 02:16:33;;;;;;;;;;;;;;;;;;4773000;28;20713;-65
2022/02/19 02:18:59;;;;;;;;;;;;;;;;;;4771912;28;19979;-65
2022/02/19 02:21:25;;;;;;;;;;;;;;;;;;4796215;28;19922;-65
2022/02/19 02:23:51;;;;;;;;;;;;;;;;;;4794577;28;19937;-65
2022/02/19 02:26:16;;;;;;;;;;;;;;;;;;4795913;28;21171;-64
2022/02/19 02:28:44;;;;;;;;;;;;;;;;;;4795713;28;19932;-64
2022/02/19 02:31:10;;;;;;;;;;;;;;;;;;4796243;28;19985;-66
2022/02/19 02:33:36;;;;;;;;;;;;;;;;;;4794869;28;20044;-67
2022/02/19 02:36:02;;;;;;;;;;;;;;;;;;4794144;28;20093;-66
2022/02/19 02:38:28;;;;;;;;;;;;;;;;;;4796304;28;19961;-66
2022/02/19 02:40:54;;;;;;;;;;;;;;;;;;4776033;28;20835;-66
2022/02/19 02:43:20;;;;;;;;;;;;;;;;;;4772918;28;19921;-66
2022/02/19 02:45:48;;;;;;;;;;;;;;;;;;4775641;28;19924;-66
2022/02/19 02:48:14;;;;;;;;;;;;;;;;;;4797331;28;20028;-67
2022/02/19 02:50:40;;;;;;;;;;;;;;;;;;4773367;28;21700;-66
2022/02/19 02:53:06;;;;;;;;;;;;;;;;;;4771247;28;20314;-67
2022/02/19 02:55:32;;;;;;;;;;;;;;;;;;4795833;28;19925;-66
2022/02/19 02:57:59;;;;;;;;;;;;;;;;;;4794033;28;20174;-66
2022/02/19 03:00:25;;;;;;;;;;;;;;;;;;4797291;28;19965;-65
2022/02/19 03:02:50;;;;;;;;;;;;;;;;;;4797561;28;19921;-66
2022/02/19 03:05:16;;;;;;;;;;;;;;;;;;4794464;28;20743;-64
2022/02/19 03:07:43;;;;;;;;;;;;;;;;;;4772035;28;20196;-65
2022/02/19 03:10:09;;;;;;;;;;;;;;;;;;4793654;28;20099;-64
2022/02/19 03:12:35;;;;;;;;;;;;;;;;;;4774413;28;19961;-65
2022/02/19 03:15:01;;;;;;;;;;;;;;;;;;4792944;28;19928;-64
2022/02/19 03:17:27;;;;;;;;;;;;;;;;;;4794058;28;19930;-67
2022/02/19 03:19:53;;;;;;;;;;;;;;;;;;4793962;28;20410;-65
2022/02/19 03:22:19;;;;;;;;;;;;;;;;;;4792986;28;21210;-64
2022/02/19 03:24:44;;;;;;;;;;;;;;;;;;4795011;28;19932;-64
2022/02/19 03:27:11;;;;;;;;;;;;;;;;;;4793795;28;20051;-64
2022/02/19 03:29:37;;;;;;;;;;;;;;;;;;4794505;28;19928;-66
2022/02/19 03:32:03;;;;;;;;;;;;;;;;;;4770416;28;19922;-65
2022/02/19 03:34:29;;;;;;;;;;;;;;;;;;4793528;28;20016;-65
2022/02/19 03:36:55;;;;;;;;;;;;;;;;;;4793556;28;19937;-65
2022/02/19 03:39:21;;;;;;;;;;;;;;;;;;4771881;28;20653;-65
2022/02/19 03:41:47;;;;;;;;;;;;;;;;;;4774060;28;20007;-66
2022/02/19 03:44:13;;;;;;;;;;;;;;;;;;4795976;28;19928;-67
2022/02/19 03:46:39;;;;;;;;;;;;;;;;;;4795637;28;19960;-65
2022/02/19 03:49:05;;;;;;;;;;;;;;;;;;4792073;28;19948;-66
2022/02/19 03:51:31;;;;;;;;;;;;;;;;;;4792940;28;19922;-66
2022/02/19 03:53:57;;;;;;;;;;;;;;;;;;4794742;28;19980;-66
2022/02/19 03:56:23;;;;;;;;;;;;;;;;;;4794181;28;19925;-66
2022/02/19 03:58:49;;;;;;;;;;;;;;;;;;4794264;28;19929;-65
2022/02/19 04:01:16;;;;;;;;;;;;;;;;;;4792391;28;20056;-65
2022/02/19 04:03:43;;;;;;;;;;;;;;;;;;4795205;28;20684;-65
2022/02/19 04:06:09;;;;;;;;;;;;;;;;;;4791470;28;19988;-67
2022/02/19 04:08:35;;;;;;;;;;;;;;;;;;4794383;28;20771;-65
2022/02/19 04:11:01;;;;;;;;;;;;;;;;;;4770559;28;19981;-65
2022/02/19 04:13:27;;;;;;;;;;;;;;;;;;4793358;28;21720;-65
2022/02/19 04:15:53;;;;;;;;;;;;;;;;;;4792631;28;19925;-64
2022/02/19 04:18:20;;;;;;;;;;;;;;;;;;4800524;28;20633;-65
2022/02/19 04:20:46;;;;;;;;;;;;;;;;;;4798448;28;20009;-64
2022/02/19 04:23:12;;;;;;;;;;;;;;;;;;4799227;28;20502;-65
2022/02/19 04:25:42;;;;;;;;;;;;;;;;;;4776193;28;20636;-64
2022/02/19 04:28:08;;;;;;;;;;;;;;;;;;4800322;28;21519;-65
2022/02/19 04:30:34;;;;;;;;;;;;;;;;;;4800953;28;21374;-65
2022/02/19 04:33:00;;;;;;;;;;;;;;;;;;4800391;28;19921;-64
2022/02/19 04:35:26;;;;;;;;;;;;;;;;;;4778629;28;19932;-65
2022/02/19 04:37:52;;;;;;;;;;;;;;;;;;4799846;28;20696;-65
2022/02/19 04:40:18;;;;;;;;;;;;;;;;;;4796765;28;19922;-65
2022/02/19 04:42:44;;;;;;;;;;;;;;;;;;4780566;28;20416;-66
2022/02/19 04:45:10;;;;;;;;;;;;;;;;;;4775763;28;20138;-65
2022/02/19 04:47:36;;;;;;;;;;;;;;;;;;4797956;28;20629;-65
2022/02/19 04:50:02;;;;;;;;;;;;;;;;;;4777476;28;19929;-65
2022/02/19 04:52:28;;;;;;;;;;;;;;;;;;4799232;28;19922;-64
2022/02/19 04:54:54;;;;;;;;;;;;;;;;;;4778081;28;20665;-65
2022/02/19 04:57:20;;;;;;;;;;;;;;;;;;4776484;28;20656;-65
2022/02/19 04:59:46;;;;;;;;;;;;;;;;;;4777381;28;19929;-65
2022/02/19 05:02:12;;;;;;;;;;;;;;;;;;4799504;28;19922;-65
2022/02/19 05:04:38;;;;;;;;;;;;;;;;;;4779360;28;19921;-66
2022/02/19 05:07:04;;;;;;;;;;;;;;;;;;4801730;28;19921;-66
2022/02/19 05:09:30;;;;;;;;;;;;;;;;;;4779418;28;19925;-66
2022/02/19 05:11:56;;;;;;;;;;;;;;;;;;4799188;28;19952;-66
2022/02/19 05:14:22;;;;;;;;;;;;;;;;;;4798132;28;20613;-65
2022/02/19 05:16:48;;;;;;;;;;;;;;;;;;4776974;28;19925;-65
2022/02/19 05:19:14;;;;;;;;;;;;;;;;;;4776255;28;20019;-65
2022/02/19 05:21:40;;;;;;;;;;;;;;;;;;4800596;28;20344;-67
2022/02/19 05:24:06;;;;;;;;;;;;;;;;;;4800110;28;21031;-64
2022/02/19 05:26:32;;;;;;;;;;;;;;;;;;4778891;28;19922;-65
2022/02/19 05:28:58;;;;;;;;;;;;;;;;;;4798243;28;21520;-64
2022/02/19 05:31:24;;;;;;;;;;;;;;;;;;4775165;28;19944;-65
2022/02/19 05:33:50;;;;;;;;;;;;;;;;;;4796613;28;19925;-64
2022/02/19 05:36:16;;;;;;;;;;;;;;;;;;4798490;28;20550;-65
2022/02/19 05:38:42;;;;;;;;;;;;;;;;;;4798979;28;19932;-67
2022/02/19 05:41:08;;;;;;;;;;;;;;;;;;4795971;28;19921;-67
2022/02/19 05:43:34;;;;;;;;;;;;;;;;;;4798597;28;19921;-64
2022/02/19 05:46:00;;;;;;;;;;;;;;;;;;4795323;28;20058;-65
2022/02/19 05:48:26;;;;;;;;;;;;;;;;;;4795545;28;20317;-65
2022/02/19 05:50:52;;;;;;;;;;;;;;;;;;4775141;28;19922;-65
2022/02/19 05:53:18;;;;;;;;;;;;;;;;;;4796030;28;19918;-65
2022/02/19 05:55:44;;;;;;;;;;;;;;;;;;4795702;28;20015;-65
2022/02/19 05:58:10;;;;;;;;;;;;;;;;;;4794594;28;19922;-64
2022/02/19 06:00:36;;;;;;;;;;;;;;;;;;4795033;28;19944;-67
2022/02/19 06:03:03;;;;;;;;;;;;;;;;;;4796281;28;19933;-65
2022/02/19 06:05:29;;;;;;;;;;;;;;;;;;4796645;28;20021;-65
2022/02/19 06:07:55;;;;;;;;;;;;;;;;;;4794196;28;20621;-65
2022/02/19 06:10:21;;;;;;;;;;;;;;;;;;4797038;28;20798;-66
2022/02/19 06:12:47;;;;;;;;;;;;;;;;;;4794491;28;20084;-65
2022/02/19 06:15:13;;;;;;;;;;;;;;;;;;4795445;28;19917;-65
2022/02/19 06:17:39;;;;;;;;;;;;;;;;;;4794656;28;21544;-65
2022/02/19 06:20:05;;;;;;;;;;;;;;;;;;4794936;28;20008;-65
2022/02/19 06:22:31;;;;;;;;;;;;;;;;;;4793806;28;19925;-65
2022/02/19 06:24:57;;;;;;;;;;;;;;;;;;4794066;28;20078;-66
2022/02/19 06:27:23;;;;;;;;;;;;;;;;;;4793876;28;20542;-65
2022/02/19 06:29:49;;;;;;;;;;;;;;;;;;4795726;28;20676;-65
2022/02/19 06:32:15;;;;;;;;;;;;;;;;;;4773718;28;20061;-65
2022/02/19 06:34:41;;;;;;;;;;;;;;;;;;4792917;28;20068;-66
2022/02/19 06:37:07;;;;;;;;;;;;;;;;;;4791664;28;20661;-65
2022/02/19 06:39:33;;;;;;;;;;;;;;;;;;4793856;28;20599;-65
2022/02/19 06:41:59;;;;;;;;;;;;;;;;;;4793923;28;22714;-65
2022/02/19 06:44:25;;;;;;;;;;;;;;;;;;4794639;28;19922;-69
2022/02/19 06:46:51;;;;;;;;;;;;;;;;;;4772445;28;21717;-68
2022/02/19 06:49:17;;;;;;;;;;;;;;;;;;4795772;28;19928;-69
2022/02/19 06:51:43;;;;;;;;;;;;;;;;;;4795281;28;19929;-68
2022/02/19 06:54:09;;;;;;;;;;;;;;;;;;4795224;28;20274;-69
2022/02/19 06:56:35;;;;;;;;;;;;;;;;;;4774149;28;19925;-68
2022/02/19 06:59:01;;;;;;;;;;;;;;;;;;4773448;28;20662;-70
2022/02/19 07:01:27;;;;;;;;;;;;;;;;;;4794261;28;19961;-70
2022/02/19 07:03:54;;;;;;;;;;;;;;;;;;4797235;28;20050;-69
2022/02/19 07:06:20;;;;;;;;;;;;;;;;;;4796435;28;20577;-70
2022/02/19 07:08:46;;;;;;;;;;;;;;;;;;4798325;28;19917;-70
2022/02/19 07:11:12;;;;;;;;;;;;;;;;;;4794662;28;19922;-69
2022/02/19 07:13:40;;;;;;;;;;;;;;;;;;4774754;28;19917;-69
2022/02/19 07:16:06;;;;;;;;;;;;;;;;;;4775081;28;19925;-71
2022/02/19 07:18:34;;;;;;;;;;;;;;;;;;4796991;28;19944;-68
2022/02/19 07:21:01;;;;;;;;;;;;;;;;;;4795620;28;19922;-68
2022/02/19 07:23:28;;;;;;;;;;;;;;;;;;4795697;28;19925;-68
2022/02/19 07:25:54;;;;;;;;;;;;;;;;;;4795932;28;20570;-69
2022/02/19 07:28:22;;;;;;;;;;;;;;;;;;4773709;28;19921;-69
2022/02/19 07:30:48;;;;;;;;;;;;;;;;;;4795213;28;19922;-69
2022/02/19 07:33:15;;;;;;;;;;;;;;;;;;4774156;28;19995;-67
2022/02/19 07:35:41;;;;;;;;;;;;;;;;;;4793620;28;19956;-68
2022/02/19 07:38:08;;;;;;;;;;;;;;;;;;4794656;28;19960;-69
2022/02/19 07:40:34;;;;;;;;;;;;;;;;;;4772266;28;19940;-67
2022/02/19 07:43:00;;;;;;;;;;;;;;;;;;4793471;28;19921;-69
2022/02/19 07:45:26;;;;;;;;;;;;;;;;;;4794884;28;20651;-70
2022/02/19 07:47:52;;;;;;;;;;;;;;;;;;4794103;28;19922;-69
2022/02/19 07:58:34;;;;;;;;;;;;;;;;;;4794681;28;19968;-67
2022/02/19 08:01:01;;;;;;;;;;;;;;;;;;4793776;28;20650;-68
2022/02/19 08:03:27;;;;;;;;;;;;;;;;;;4793985;28;19921;-68
2022/02/19 08:05:53;;;;;;;;;;;;;;;;;;4793561;28;20082;-69
2022/02/19 08:08:19;;;;;;;;;;;;;;;;;;4794472;28;20704;-68
2022/02/19 08:10:50;;;;;;;;;;;;;;;;;;4794205;28;20892;-70
2022/02/19 08:13:17;;;;;;;;;;;;;;;;;;4794180;28;19972;-67
2022/02/19 08:15:51;;;;;;;;;;;;;;;;;;4793522;28;20729;-69
2022/02/19 08:18:26;;;;;;;;;;;;;;;;;;4794054;28;20004;-70
2022/02/19 08:20:52;;;;;;;;;;;;;;;;;;4773295;28;20579;-65
2022/02/19 08:23:18;;;;;;;;;;;;;;;;;;4793619;28;20629;-68
2022/02/19 08:25:47;;;;;;;;;;;;;;;;;;4794020;28;19922;-68
2022/02/19 08:28:13;;;;;;;;;;;;;;;;;;4793728;28;20186;-67
2022/02/19 08:30:39;;;;;;;;;;;;;;;;;;4794532;28;21149;-68
2022/02/19 08:33:05;;;;;;;;;;;;;;;;;;4795174;28;20005;-67
2022/02/19 08:35:31;;;;;;;;;;;;;;;;;;4794492;28;20263;-67
2022/02/19 08:37:57;;;;;;;;;;;;;;;;;;4794063;28;21521;-67
2022/02/19 08:40:26;;;;;;;;;;;;;;;;;;4794441;28;19928;-68
2022/02/19 08:42:52;;;;;;;;;;;;;;;;;;4794726;28;19925;-68
2022/02/19 08:45:19;;;;;;;;;;;;;;;;;;4795877;28;20808;-68
2022/02/19 08:47:48;;;;;;;;;;;;;;;;;;4794721;28;19922;-68
2022/02/19 08:50:15;;;;;;;;;;;;;;;;;;4795448;28;19922;-69
2022/02/19 08:52:41;;;;;;;;;;;;;;;;;;4775033;28;19979;-68
2022/02/19 08:55:09;;;;;;;;;;;;;;;;;;4793251;28;20274;-68
2022/02/19 08:57:37;;;;;;;;;;;;;;;;;;4773301;28;19932;-68
2022/02/19 09:00:04;;;;;;;;;;;;;;;;;;4796088;28;19928;-68
2022/02/19 09:02:31;;;;;;;;;;;;;;;;;;4772161;28;19941;-68
2022/02/19 09:04:59;;;;;;;;;;;;;;;;;;4776645;28;19941;-70
2022/02/19 09:07:26;;;;;;;;;;;;;;;;;;4797306;28;20059;-66
2022/02/19 09:09:54;;;;;;;;;;;;;;;;;;4799240;28;19922;-66
2022/02/19 09:12:22;;;;;;;;;;;;;;;;;;4780862;28;20012;-65
2022/02/19 09:14:49;;;;;;;;;;;;;;;;;;4777351;28;21314;-66
2022/02/19 09:17:16;;;;;;;;;;;;;;;;;;4779935;28;21397;-68
2022/02/19 09:19:43;;;;;;;;;;;;;;;;;;4768558;28;19933;-67
2022/02/19 09:22:09;;;;;;;;;;;;;;;;;;4800139;28;19921;-68
2022/02/19 09:24:35;;;;;;;;;;;;;;;;;;4797623;28;20754;-63
2022/02/19 09:27:02;;;;;;;;;;;;;;;;;;4798143;28;20052;-63
2022/02/19 09:29:30;;;;;;;;;;;;;;;;;;4801312;28;21738;-63
2022/02/19 09:31:57;;;;;;;;;;;;;;;;;;4801481;28;19951;-63
2022/02/19 09:34:23;;;;;;;;;;;;;;;;;;4797975;28;19983;-63
2022/02/19 09:36:49;;;;;;;;;;;;;;;;;;4796356;28;19953;-63
2022/02/19 09:39:15;;;;;;;;;;;;;;;;;;4797818;28;19921;-63
2022/02/19 09:41:41;;;;;;;;;;;;;;;;;;4802174;28;19922;-62
2022/02/19 09:44:07;;;;;;;;;;;;;;;;;;4798654;28;20583;-62
2022/02/19 09:46:33;;;;;;;;;;;;;;;;;;4797675;28;19941;-63
2022/02/19 09:48:59;;;;;;;;;;;;;;;;;;4776330;28;20229;-64
2022/02/19 09:51:26;;;;;;;;;;;;;;;;;;4893080;28;20046;-63
2022/02/19 09:53:52;;;;;;;;;;;;;;;;;;4780027;28;19945;-63
2022/02/19 09:56:18;;;;;;;;;;;;;;;;;;4798560;28;19929;-64
2022/02/19 09:58:45;;;;;;;;;;;;;;;;;;4797683;28;20023;-63
2022/02/19 10:01:11;;;;;;;;;;;;;;;;;;4776617;28;21695;-64
2022/02/19 10:03:37;;;;;;;;;;;;;;;;;;4797258;28;19944;-64
2022/02/19 10:06:04;;;;;;;;;;;;;;;;;;4797924;28;22200;-63
2022/02/19 10:08:30;;;;;;;;;;;;;;;;;;4796695;28;19922;-64
2022/02/19 10:10:56;;;;;;;;;;;;;;;;;;4795647;28;19984;-64
2022/02/19 10:13:22;;;;;;;;;;;;;;;;;;4776957;28;20621;-63
2022/02/19 10:15:49;;;;;;;;;;;;;;;;;;4793904;28;20019;-62
2022/02/19 10:18:15;;;;;;;;;;;;;;;;;;4770937;28;21171;-63
2022/02/19 10:20:41;;;;;;;;;;;;;;;;;;4793353;28;19937;-62
2022/02/19 10:23:07;;;;;;;;;;;;;;;;;;4817901;28;19929;-62
2022/02/19 10:25:33;;;;;;;;;;;;;;;;;;4844797;28;19922;-63
2022/02/19 10:28:04;;;;;;;;;;;;;;;;;;4807390;28;20022;-62
2022/02/19 10:30:30;;;;;;;;;;;;;;;;;;4796008;28;19918;-64
2022/02/19 10:35:47;;;;;;;;;;;;;;;;;;4796558;28;19952;-63
2022/02/19 10:38:14;;;;;;;;;;;;;;;;;;4795975;28;19925;-62
2022/02/19 10:40:42;;;;;;;;;;;;;;;;;;4799526;28;20633;-65
2022/02/19 10:43:08;;;;;;;;;;;;;;;;;;4798494;28;19971;-64
2022/02/19 10:45:35;;;;;;;;;;;;;;;;;;4795810;28;20541;-64
2022/02/19 10:48:01;;;;;;;;;;;;;;;;;;4774967;28;19953;-62
2022/02/19 10:50:27;;;;;;;;;;;;;;;;;;4795465;28;19925;-62
2022/02/19 10:52:53;;;;;;;;;;;;;;;;;;4793992;28;20820;-64
2022/02/19 10:55:23;;;;;;;;;;;;;;;;;;4795898;28;20576;-64
2022/02/19 10:57:49;;;;;;;;;;;;;;;;;;4794124;28;19964;-64
2022/02/19 11:00:15;;;;;;;;;;;;;;;;;;4795031;28;20626;-64
2022/02/19 11:02:41;;;;;;;;;;;;;;;;;;4793624;28;19929;-64
2022/02/19 11:05:07;;;;;;;;;;;;;;;;;;4793006;28;20048;-63
2022/02/19 11:07:33;;;;;;;;;;;;;;;;;;4793868;28;20083;-66
2022/02/19 11:09:59;;;;;;;;;;;;;;;;;;4794562;28;20647;-63
2022/02/19 11:12:25;;;;;;;;;;;;;;;;;;4773479;28;19994;-64
2022/02/19 11:14:51;;;;;;;;;;;;;;;;;;4798426;28;20093;-66
2022/02/19 11:17:17;;;;;;;;;;;;;;;;;;4792979;28;20653;-65
2022/02/19 11:19:43;;;;;;;;;;;;;;;;;;4773541;28;19964;-64
2022/02/19 11:22:09;;;;;;;;;;;;;;;;;;4796760;28;21632;-64
2022/02/19 11:24:35;;;;;;;;;;;;;;;;;;4796291;28;19932;-64
2022/02/19 11:27:03;;;;;;;;;;;;;;;;;;4800122;28;19976;-63
2022/02/19 11:29:29;;;;;;;;;;;;;;;;;;4792920;28;20685;-63
2022/02/19 11:31:55;;;;;;;;;;;;;;;;;;4772377;28;19921;-63
2022/02/19 11:34:21;;;;;;;;;;;;;;;;;;4796445;28;20068;-63
2022/02/19 11:36:47;;;;;;;;;;;;;;;;;;4773132;28;20016;-63
2022/02/19 11:39:13;;;;;;;;;;;;;;;;;;4794639;28;19921;-62
2022/02/19 11:41:43;;;;;;;;;;;;;;;;;;4794976;28;19948;-63
2022/02/19 11:44:09;;;;;;;;;;;;;;;;;;4795006;28;20703;-63
2022/02/19 11:46:35;;;;;;;;;;;;;;;;;;4794749;28;21448;-63
2022/02/19 11:49:01;;;;;;;;;;;;;;;;;;4772585;28;20015;-63
2022/02/19 11:51:27;;;;;;;;;;;;;;;;;;4773994;28;20982;-63
2022/02/19 11:53:53;;;;;;;;;;;;;;;;;;4793118;28;22259;-64
2022/02/19 11:56:19;;;;;;;;;;;;;;;;;;4794052;28;21030;-63
2022/02/19 11:58:45;;;;;;;;;;;;;;;;;;4796153;28;19988;-63
2022/02/19 12:01:12;;;;;;;;;;;;;;;;;;4794481;28;20733;-63
2022/02/19 12:03:38;;;;;;;;;;;;;;;;;;4794188;28;20375;-63
2022/02/19 12:06:07;;;;;;;;;;;;;;;;;;4794998;28;19925;-64
2022/02/19 12:08:33;;;;;;;;;;;;;;;;;;4792961;28;20727;-64
2022/02/19 12:10:59;;;;;;;;;;;;;;;;;;4771650;28;19952;-63
2022/02/19 12:13:25;;;;;;;;;;;;;;;;;;4772921;28;20802;-63
2022/02/19 12:15:57;;;;;;;;;;;;;;;;;;4792349;28;19961;-64
2022/02/19 12:18:23;;;;;;;;;;;;;;;;;;4794580;28;19921;-64
2022/02/19 12:20:49;;;;;;;;;;;;;;;;;;4793160;28;19961;-63
2022/02/19 12:23:15;;;;;;;;;;;;;;;;;;4793947;28;20669;-63
2022/02/19 12:25:41;;;;;;;;;;;;;;;;;;4794709;28;20998;-64
2022/02/19 12:28:07;;;;;;;;;;;;;;;;;;4793334;28;19937;-63
2022/02/19 12:30:33;;;;;;;;;;;;;;;;;;4773599;28;20553;-63
2022/02/19 12:33:00;;;;;;;;;;;;;;;;;;4793866;28;20098;-64
2022/02/19 12:35:26;;;;;;;;;;;;;;;;;;4794211;28;20472;-64
2022/02/19 12:37:52;;;;;;;;;;;;;;;;;;4793477;28;21807;-64
2022/02/19 12:40:18;;;;;;;;;;;;;;;;;;4810784;28;19921;-64
2022/02/19 12:42:44;;;;;;;;;;;;;;;;;;4798003;28;19921;-63
2022/02/19 12:45:11;;;;;;;;;;;;;;;;;;4798955;28;20005;-63
2022/02/19 12:47:37;;;;;;;;;;;;;;;;;;4797816;28;19937;-64
2022/02/19 12:50:03;;;;;;;;;;;;;;;;;;4799086;28;20270;-64
2022/02/19 12:52:32;;;;;;;;;;;;;;;;;;4800387;28;21616;-67
2022/02/19 12:54:59;;;;;;;;;;;;;;;;;;4818764;28;19925;-64
2022/02/19 12:57:25;;;;;;;;;;;;;;;;;;4889842;28;21180;-64
2022/02/19 12:59:51;;;;;;;;;;;;;;;;;;4798587;28;20643;-65
2022/02/19 13:02:17;;;;;;;;;;;;;;;;;;4793168;28;19922;-64
2022/02/19 13:04:43;;;;;;;;;;;;;;;;;;4777280;28;19941;-64
2022/02/19 13:07:09;;;;;;;;;;;;;;;;;;4795568;28;19925;-64
2022/02/19 13:09:35;;;;;;;;;;;;;;;;;;4775640;28;19921;-65
2022/02/19 13:12:01;;;;;;;;;;;;;;;;;;4796969;28;21419;-64
2022/02/19 13:14:27;;;;;;;;;;;;;;;;;;4775254;28;19929;-64
2022/02/19 13:16:53;;;;;;;;;;;;;;;;;;4795531;28;19926;-64
2022/02/19 13:19:19;;;;;;;;;;;;;;;;;;4796189;28;20002;-64
2022/02/19 13:21:45;;;;;;;;;;;;;;;;;;4796726;28;20538;-64
2022/02/19 13:24:11;;;;;;;;;;;;;;;;;;4794534;28;19925;-64
2022/02/19 13:26:37;;;;;;;;;;;;;;;;;;4797231;28;19933;-65
2022/02/19 13:29:03;;;;;;;;;;;;;;;;;;4774344;28;20603;-64
2022/02/19 13:31:29;;;;;;;;;;;;;;;;;;4796929;28;20823;-64
2022/02/19 13:33:55;;;;;;;;;;;;;;;;;;4776917;28;19950;-65
2022/02/19 13:36:21;;;;;;;;;;;;;;;;;;4797205;28;20079;-65
2022/02/19 13:38:47;;;;;;;;;;;;;;;;;;4774848;28;20807;-65
2022/02/19 13:41:15;;;;;;;;;;;;;;;;;;4774818;28;19937;-65
2022/02/19 13:43:40;;;;;;;;;;;;;;;;;;4795482;28;19933;-65
2022/02/19 13:46:06;;;;;;;;;;;;;;;;;;4797484;28;20004;-65
2022/02/19 13:48:33;;;;;;;;;;;;;;;;;;4777653;28;20572;-65
2022/02/19 13:51:01;;;;;;;;;;;;;;;;;;4797484;28;20906;-65
2022/02/19 13:53:27;;;;;;;;;;;;;;;;;;4798115;28;20015;-66
2022/02/19 13:55:54;;;;;;;;;;;;;;;;;;4799284;28;20530;-66
2022/02/19 13:58:20;;;;;;;;;;;;;;;;;;4798288;28;19945;-66
2022/02/19 14:00:46;;;;;;;;;;;;;;;;;;4774720;28;19930;-66
2022/02/19 14:03:12;;;;;;;;;;;;;;;;;;4796032;28;19928;-66
2022/02/19 14:05:38;;;;;;;;;;;;;;;;;;4791580;28;20081;-66
2022/02/19 14:08:04;;;;;;;;;;;;;;;;;;4769241;28;19921;-64
2022/02/19 14:10:30;;;;;;;;;;;;;;;;;;4865234;28;19929;-63
2022/02/19 14:12:56;;;;;;;;;;;;;;;;;;4773810;28;19998;-64
2022/02/19 14:15:22;;;;;;;;;;;;;;;;;;4795200;28;20650;-66
2022/02/19 14:17:49;;;;;;;;;;;;;;;;;;4864773;28;19926;-64
2022/02/19 14:20:16;;;;;;;;;;;;;;;;;;4822024;28;20639;-64
2022/02/19 14:22:42;;;;;;;;;;;;;;;;;;4771236;28;20389;-66
2022/02/19 14:25:08;;;;;;;;;;;;;;;;;;4794007;28;20599;-66
2022/02/19 14:27:35;;;;;;;;;;;;;;;;;;4796578;28;20270;-66
2022/02/19 14:30:01;;;;;;;;;;;;;;;;;;4795432;28;20306;-66
2022/02/19 14:32:27;;;;;;;;;;;;;;;;;;4773154;28;21818;-66
2022/02/19 14:34:53;;;;;;;;;;;;;;;;;;4823732;28;19918;-66
2022/02/19 14:37:20;;;;;;;;;;;;;;;;;;4879725;28;21540;-65
2022/02/19 14:39:46;;;;;;;;;;;;;;;;;;4796426;28;20969;-65
2022/02/19 14:42:12;;;;;;;;;;;;;;;;;;4795025;28;19925;-65
2022/02/19 14:44:38;;;;;;;;;;;;;;;;;;4796697;28;19928;-65
2022/02/19 14:47:04;;;;;;;;;;;;;;;;;;4796301;28;19922;-65
2022/02/19 14:49:31;;;;;;;;;;;;;;;;;;4774516;28;19976;-65
2022/02/19 14:51:58;;;;;;;;;;;;;;;;;;4794203;28;20022;-65
2022/02/19 14:54:27;;;;;;;;;;;;;;;;;;4794269;28;22843;-65
2022/02/19 14:56:53;;;;;;;;;;;;;;;;;;4795407;28;19983;-65
2022/02/19 14:59:19;;;;;;;;;;;;;;;;;;4795316;28;20194;-63
2022/02/19 15:01:45;;;;;;;;;;;;;;;;;;4771534;28;19922;-63
2022/02/19 15:04:11;;;;;;;;;;;;;;;;;;4795376;28;19922;-64
2022/02/19 15:06:37;;;;;;;;;;;;;;;;;;4795266;28;19922;-63
2022/02/19 15:09:04;;;;;;;;;;;;;;;;;;4794460;28;19976;-63
2022/02/19 15:11:30;;;;;;;;;;;;;;;;;;4795190;28;19932;-63
2022/02/19 15:13:56;;;;;;;;;;;;;;;;;;4772302;28;20032;-63
2022/02/19 15:16:22;;;;;;;;;;;;;;;;;;4858278;28;20661;-63
2022/02/19 15:18:49;;;;;;;;;;;;;;;;;;4793844;28;20244;-65
2022/02/19 15:21:15;;;;;;;;;;;;;;;;;;4793518;28;20220;-65
2022/02/19 15:23:41;;;;;;;;;;;;;;;;;;4793256;28;20655;-65
2022/02/19 15:26:07;;;;;;;;;;;;;;;;;;4790537;28;19964;-65
2022/02/19 15:28:33;;;;;;;;;;;;;;;;;;4793454;28;19921;-65
2022/02/19 15:30:59;;;;;;;;;;;;;;;;;;4771592;28;20530;-65
2022/02/19 15:33:25;;;;;;;;;;;;;;;;;;4793600;28;20647;-64
2022/02/19 15:35:51;;;;;;;;;;;;;;;;;;4773247;28;19922;-64
2022/02/19 15:38:17;;;;;;;;;;;;;;;;;;4856087;28;19922;-64
2022/02/19 15:40:43;;;;;;;;;;;;;;;;;;4795155;28;20677;-64
2022/02/19 15:43:09;;;;;;;;;;;;;;;;;;4817971;28;20657;-63
2022/02/19 15:45:35;;;;;;;;;;;;;;;;;;4874310;28;19973;-64
2022/02/19 15:48:02;;;;;;;;;;;;;;;;;;4796144;28;20759;-63
2022/02/19 15:50:28;;;;;;;;;;;;;;;;;;4776194;28;19976;-64
2022/02/19 15:52:54;;;;;;;;;;;;;;;;;;4774017;28;21350;-64
2022/02/19 15:55:22;;;;;;;;;;;;;;;;;;4798006;28;19932;-64
2022/02/19 15:57:49;;;;;;;;;;;;;;;;;;4827531;28;19925;-63
2022/02/19 16:00:15;;;;;;;;;;;;;;;;;;4925799;28;20381;-63
2022/02/19 16:02:41;;;;;;;;;;;;;;;;;;4827107;28;20011;-63
2022/02/19 16:05:07;;;;;;;;;;;;;;;;;;4797712;28;20663;-63
2022/02/19 16:07:33;;;;;;;;;;;;;;;;;;4773792;28;21448;-63
2022/02/19 16:09:59;;;;;;;;;;;;;;;;;;4771476;28;19932;-63
2022/02/19 16:12:25;;;;;;;;;;;;;;;;;;4794022;28;19917;-63
2022/02/19 16:14:51;;;;;;;;;;;;;;;;;;4792918;28;20633;-63
2022/02/19 16:17:17;;;;;;;;;;;;;;;;;;4793755;28;20477;-63
2022/02/19 16:19:42;;;;;;;;;;;;;;;;;;4771424;28;19928;-63
2022/02/19 16:22:08;;;;;;;;;;;;;;;;;;4772629;28;20721;-65
2022/02/19 16:24:34;;;;;;;;;;;;;;;;;;4794113;28;20013;-65
2022/02/19 16:27:01;;;;;;;;;;;;;;;;;;4793978;28;21188;-63
2022/02/19 16:29:27;;;;;;;;;;;;;;;;;;4795822;28;20007;-62
2022/02/19 16:31:53;;;;;;;;;;;;;;;;;;4794037;28;19948;-63
2022/02/19 16:34:19;;;;;;;;;;;;;;;;;;4793649;28;19926;-63
2022/02/19 16:36:45;;;;;;;;;;;;;;;;;;4794133;28;19940;-64
2022/02/19 16:39:11;;;;;;;;;;;;;;;;;;4792588;28;20019;-63
2022/02/19 16:41:37;;;;;;;;;;;;;;;;;;4774104;28;19921;-63
2022/02/19 16:44:03;;;;;;;;;;;;;;;;;;4792091;28;20680;-64
2022/02/19 16:46:29;;;;;;;;;;;;;;;;;;4793065;28;19922;-64
2022/02/19 16:48:57;;;;;;;;;;;;;;;;;;4792080;28;19953;-65